sensor_id;sensor_type;location;lat;lon;timestamp;P1;durP1;ratioP1;P2;durP2;ratioP2
982;SDS011;480;48.124;11.578;2023-04-03T00:01:43;6.73;;;4.60;;
982;SDS011;480;48.124;11.578;2023-04-03T00:04:10;5.30;;;4.50;;
982;SDS011;480;48.124;11.578;2023-04-03T00:06:37;5.43;;;4.93;;
982;SDS011;480;48.124;11.578;2023-04-03T00:09:04;7.53;;;5.60;;
982;SDS011;480;48.124;11.578;2023-04-03T00:11:31;8.30;;;5.53;;
982;SDS011;480;48.124;11.578;2023-04-03T00:13:58;7.17;;;5.57;;
982;SDS011;480;48.124;11.578;2023-04-03T00:16:25;8.43;;;5.60;;
982;SDS011;480;48.124;11.578;2023-04-03T00:18:54;5.67;;;5.13;;
982;SDS011;480;48.124;11.578;2023-04-03T00:21:21;6.50;;;5.53;;
982;SDS011;480;48.124;11.578;2023-04-03T00:23:48;6.43;;;5.10;;
982;SDS011;480;48.124;11.578;2023-04-03T00:26:15;8.30;;;5.63;;
982;SDS011;480;48.124;11.578;2023-04-03T00:28:42;5.43;;;4.93;;
982;SDS011;480;48.124;11.578;2023-04-03T00:31:09;6.13;;;5.53;;
982;SDS011;480;48.124;11.578;2023-04-03T00:33:36;6.37;;;4.27;;
982;SDS011;480;48.124;11.578;2023-04-03T00:36:08;5.27;;;4.80;;
982;SDS011;480;48.124;11.578;2023-04-03T00:38:35;7.97;;;4.43;;
982;SDS011;480;48.124;11.578;2023-04-03T00:41:02;8.27;;;5.90;;
982;SDS011;480;48.124;11.578;2023-04-03T00:43:29;7.37;;;5.83;;
982;SDS011;480;48.124;11.578;2023-04-03T00:45:57;8.00;;;5.63;;
982;SDS011;480;48.124;11.578;2023-04-03T00:48:26;5.47;;;4.40;;
982;SDS011;480;48.124;11.578;2023-04-03T00:50:57;5.93;;;5.30;;
982;SDS011;480;48.124;11.578;2023-04-03T00:53:26;6.17;;;4.87;;
982;SDS011;480;48.124;11.578;2023-04-03T00:55:56;5.40;;;4.30;;
982;SDS011;480;48.124;11.578;2023-04-03T00:58:26;5.83;;;5.17;;
982;SDS011;480;48.124;11.578;2023-04-03T01:00:59;5.57;;;4.97;;
982;SDS011;480;48.124;11.578;2023-04-03T01:03:31;5.17;;;4.67;;
982;SDS011;480;48.124;11.578;2023-04-03T01:05:58;5.60;;;4.60;;
982;SDS011;480;48.124;11.578;2023-04-03T01:08:27;7.23;;;4.60;;
982;SDS011;480;48.124;11.578;2023-04-03T01:10:55;6.17;;;5.53;;
982;SDS011;480;48.124;11.578;2023-04-03T01:13:23;6.10;;;5.57;;
982;SDS011;480;48.124;11.578;2023-04-03T01:15:51;8.50;;;4.57;;
982;SDS011;480;48.124;11.578;2023-04-03T01:18:18;6.50;;;4.53;;
982;SDS011;480;48.124;11.578;2023-04-03T01:24:10;6.43;;;5.27;;
982;SDS011;480;48.124;11.578;2023-04-03T01:26:45;3.60;;;3.30;;
982;SDS011;480;48.124;11.578;2023-04-03T01:29:12;7.27;;;4.97;;
982;SDS011;480;48.124;11.578;2023-04-03T01:31:46;8.87;;;5.10;;
982;SDS011;480;48.124;11.578;2023-04-03T01:34:15;6.50;;;5.20;;
982;SDS011;480;48.124;11.578;2023-04-03T01:36:42;5.70;;;5.30;;
982;SDS011;480;48.124;11.578;2023-04-03T01:39:09;6.07;;;5.57;;
982;SDS011;480;48.124;11.578;2023-04-03T01:41:36;4.60;;;4.30;;
982;SDS011;480;48.124;11.578;2023-04-03T01:44:03;4.73;;;4.33;;
982;SDS011;480;48.124;11.578;2023-04-03T01:46:31;3.53;;;3.17;;
982;SDS011;480;48.124;11.578;2023-04-03T01:48:59;8.17;;;5.80;;
982;SDS011;480;48.124;11.578;2023-04-03T01:51:27;4.93;;;4.40;;
982;SDS011;480;48.124;11.578;2023-04-03T01:53:54;5.40;;;4.63;;
982;SDS011;480;48.124;11.578;2023-04-03T01:56:21;5.87;;;5.30;;
982;SDS011;480;48.124;11.578;2023-04-03T01:58:48;7.70;;;4.40;;
982;SDS011;480;48.124;11.578;2023-04-03T02:01:15;5.93;;;4.60;;
982;SDS011;480;48.124;11.578;2023-04-03T02:03:42;7.90;;;5.53;;
982;SDS011;480;48.124;11.578;2023-04-03T02:06:11;5.23;;;4.73;;
982;SDS011;480;48.124;11.578;2023-04-03T02:08:38;5.30;;;4.43;;
982;SDS011;480;48.124;11.578;2023-04-03T02:11:05;8.33;;;5.50;;
982;SDS011;480;48.124;11.578;2023-04-03T02:13:32;5.80;;;5.30;;
982;SDS011;480;48.124;11.578;2023-04-03T02:15:59;4.90;;;4.40;;
982;SDS011;480;48.124;11.578;2023-04-03T02:18:32;11.93;;;5.87;;
982;SDS011;480;48.124;11.578;2023-04-03T02:20:59;7.47;;;5.00;;
982;SDS011;480;48.124;11.578;2023-04-03T02:23:28;6.40;;;4.50;;
982;SDS011;480;48.124;11.578;2023-04-03T02:26:02;5.53;;;4.30;;
982;SDS011;480;48.124;11.578;2023-04-03T02:28:33;4.70;;;4.00;;
982;SDS011;480;48.124;11.578;2023-04-03T02:31:00;4.90;;;4.60;;
982;SDS011;480;48.124;11.578;2023-04-03T02:33:27;5.00;;;4.50;;
982;SDS011;480;48.124;11.578;2023-04-03T02:35:55;6.47;;;5.60;;
982;SDS011;480;48.124;11.578;2023-04-03T02:38:23;6.17;;;4.67;;
982;SDS011;480;48.124;11.578;2023-04-03T02:40:52;4.83;;;4.40;;
982;SDS011;480;48.124;11.578;2023-04-03T02:43:19;4.17;;;3.77;;
982;SDS011;480;48.124;11.578;2023-04-03T02:45:46;3.83;;;3.53;;
982;SDS011;480;48.124;11.578;2023-04-03T02:48:13;4.90;;;4.37;;
982;SDS011;480;48.124;11.578;2023-04-03T02:50:41;7.00;;;4.97;;
982;SDS011;480;48.124;11.578;2023-04-03T02:53:08;7.80;;;5.77;;
982;SDS011;480;48.124;11.578;2023-04-03T02:55:35;4.10;;;3.70;;
982;SDS011;480;48.124;11.578;2023-04-03T02:58:04;11.13;;;3.97;;
982;SDS011;480;48.124;11.578;2023-04-03T03:00:31;4.63;;;4.20;;
982;SDS011;480;48.124;11.578;2023-04-03T03:02:58;3.73;;;3.40;;
982;SDS011;480;48.124;11.578;2023-04-03T03:05:25;4.77;;;3.70;;
982;SDS011;480;48.124;11.578;2023-04-03T03:07:52;6.00;;;3.90;;
982;SDS011;480;48.124;11.578;2023-04-03T03:10:19;4.77;;;3.43;;
982;SDS011;480;48.124;11.578;2023-04-03T03:12:46;4.20;;;3.80;;
982;SDS011;480;48.124;11.578;2023-04-03T03:15:15;5.80;;;4.30;;
982;SDS011;480;48.124;11.578;2023-04-03T03:17:44;4.80;;;4.07;;
982;SDS011;480;48.124;11.578;2023-04-03T03:20:12;3.03;;;2.83;;
982;SDS011;480;48.124;11.578;2023-04-03T03:22:40;4.50;;;3.73;;
982;SDS011;480;48.124;11.578;2023-04-03T03:25:07;5.13;;;3.87;;
982;SDS011;480;48.124;11.578;2023-04-03T03:27:35;4.27;;;3.93;;
982;SDS011;480;48.124;11.578;2023-04-03T03:30:02;4.90;;;3.73;;
982;SDS011;480;48.124;11.578;2023-04-03T03:32:31;5.23;;;4.07;;
982;SDS011;480;48.124;11.578;2023-04-03T03:34:58;3.83;;;3.30;;
982;SDS011;480;48.124;11.578;2023-04-03T03:37:25;3.87;;;3.20;;
982;SDS011;480;48.124;11.578;2023-04-03T03:39:52;4.20;;;3.60;;
982;SDS011;480;48.124;11.578;2023-04-03T03:42:19;3.93;;;3.33;;
982;SDS011;480;48.124;11.578;2023-04-03T03:44:47;3.83;;;3.53;;
982;SDS011;480;48.124;11.578;2023-04-03T03:47:14;3.97;;;3.10;;
982;SDS011;480;48.124;11.578;2023-04-03T03:49:43;2.17;;;2.07;;
982;SDS011;480;48.124;11.578;2023-04-03T03:52:10;4.30;;;3.50;;
982;SDS011;480;48.124;11.578;2023-04-03T03:54:37;3.83;;;3.53;;
982;SDS011;480;48.124;11.578;2023-04-03T03:57:04;3.27;;;3.07;;
982;SDS011;480;48.124;11.578;2023-04-03T03:59:31;5.23;;;4.70;;
982;SDS011;480;48.124;11.578;2023-04-03T04:01:58;3.50;;;3.20;;
982;SDS011;480;48.124;11.578;2023-04-03T04:04:26;5.20;;;3.23;;
982;SDS011;480;48.124;11.578;2023-04-03T04:06:54;3.40;;;3.10;;
982;SDS011;480;48.124;11.578;2023-04-03T04:09:21;3.90;;;3.30;;
982;SDS011;480;48.124;11.578;2023-04-03T04:11:48;4.57;;;4.17;;
982;SDS011;480;48.124;11.578;2023-04-03T04:14:15;3.37;;;3.07;;
982;SDS011;480;48.124;11.578;2023-04-03T04:16:42;6.33;;;3.93;;
982;SDS011;480;48.124;11.578;2023-04-03T04:19:09;2.93;;;2.23;;
982;SDS011;480;48.124;11.578;2023-04-03T04:21:36;4.13;;;3.33;;
982;SDS011;480;48.124;11.578;2023-04-03T04:24:06;2.00;;;1.80;;
982;SDS011;480;48.124;11.578;2023-04-03T04:26:33;2.60;;;2.50;;
982;SDS011;480;48.124;11.578;2023-04-03T04:29:00;3.40;;;3.10;;
982;SDS011;480;48.124;11.578;2023-04-03T04:31:27;3.07;;;2.73;;
982;SDS011;480;48.124;11.578;2023-04-03T04:33:54;3.60;;;3.10;;
982;SDS011;480;48.124;11.578;2023-04-03T04:36:21;5.80;;;2.73;;
982;SDS011;480;48.124;11.578;2023-04-03T04:38:48;2.77;;;2.53;;
982;SDS011;480;48.124;11.578;2023-04-03T04:41:19;2.37;;;2.20;;
982;SDS011;480;48.124;11.578;2023-04-03T04:43:47;3.53;;;2.57;;
982;SDS011;480;48.124;11.578;2023-04-03T04:46:14;3.20;;;3.00;;
982;SDS011;480;48.124;11.578;2023-04-03T04:48:42;3.73;;;3.43;;
982;SDS011;480;48.124;11.578;2023-04-03T04:51:10;3.13;;;2.80;;
982;SDS011;480;48.124;11.578;2023-04-03T04:53:37;4.37;;;3.20;;
982;SDS011;480;48.124;11.578;2023-04-03T04:56:04;3.57;;;3.33;;
982;SDS011;480;48.124;11.578;2023-04-03T04:58:33;3.70;;;2.97;;
982;SDS011;480;48.124;11.578;2023-04-03T05:01:00;2.70;;;2.43;;
982;SDS011;480;48.124;11.578;2023-04-03T05:03:27;3.17;;;2.97;;
982;SDS011;480;48.124;11.578;2023-04-03T05:05:54;2.80;;;2.60;;
982;SDS011;480;48.124;11.578;2023-04-03T05:08:22;2.67;;;2.47;;
982;SDS011;480;48.124;11.578;2023-04-03T05:10:49;3.97;;;3.60;;
982;SDS011;480;48.124;11.578;2023-04-03T05:13:16;4.17;;;2.87;;
982;SDS011;480;48.124;11.578;2023-04-03T05:15:45;3.77;;;3.47;;
982;SDS011;480;48.124;11.578;2023-04-03T05:18:12;3.40;;;2.60;;
982;SDS011;480;48.124;11.578;2023-04-03T05:20:39;3.33;;;3.13;;
982;SDS011;480;48.124;11.578;2023-04-03T05:23:06;3.40;;;3.03;;
982;SDS011;480;48.124;11.578;2023-04-03T05:25:33;3.20;;;2.60;;
982;SDS011;480;48.124;11.578;2023-04-03T05:28:00;2.83;;;2.53;;
982;SDS011;480;48.124;11.578;2023-04-03T05:30:28;2.83;;;2.63;;
982;SDS011;480;48.124;11.578;2023-04-03T05:32:56;3.67;;;3.10;;
982;SDS011;480;48.124;11.578;2023-04-03T05:35:25;4.57;;;3.67;;
982;SDS011;480;48.124;11.578;2023-04-03T05:37:53;3.70;;;3.40;;
982;SDS011;480;48.124;11.578;2023-04-03T05:40:20;3.87;;;3.40;;
982;SDS011;480;48.124;11.578;2023-04-03T05:42:48;3.90;;;3.30;;
982;SDS011;480;48.124;11.578;2023-04-03T05:45:15;3.43;;;3.13;;
982;SDS011;480;48.124;11.578;2023-04-03T05:47:43;3.33;;;2.67;;
982;SDS011;480;48.124;11.578;2023-04-03T05:50:11;4.00;;;2.60;;
982;SDS011;480;48.124;11.578;2023-04-03T05:52:40;4.30;;;2.80;;
982;SDS011;480;48.124;11.578;2023-04-03T05:55:09;2.97;;;2.27;;
982;SDS011;480;48.124;11.578;2023-04-03T05:57:36;4.60;;;2.33;;
982;SDS011;480;48.124;11.578;2023-04-03T06:00:04;2.53;;;2.20;;
982;SDS011;480;48.124;11.578;2023-04-03T06:02:32;4.30;;;3.30;;
982;SDS011;480;48.124;11.578;2023-04-03T06:04:59;3.03;;;2.70;;
982;SDS011;480;48.124;11.578;2023-04-03T06:07:28;4.70;;;3.57;;
982;SDS011;480;48.124;11.578;2023-04-03T06:09:55;4.40;;;3.27;;
982;SDS011;480;48.124;11.578;2023-04-03T06:12:23;5.77;;;2.67;;
982;SDS011;480;48.124;11.578;2023-04-03T06:14:50;5.47;;;3.03;;
982;SDS011;480;48.124;11.578;2023-04-03T06:17:18;3.80;;;3.50;;
982;SDS011;480;48.124;11.578;2023-04-03T06:19:45;4.07;;;3.67;;
982;SDS011;480;48.124;11.578;2023-04-03T06:22:13;2.93;;;2.70;;
982;SDS011;480;48.124;11.578;2023-04-03T06:24:42;2.90;;;2.60;;
982;SDS011;480;48.124;11.578;2023-04-03T06:27:10;3.40;;;3.20;;
982;SDS011;480;48.124;11.578;2023-04-03T06:29:37;4.50;;;3.40;;
982;SDS011;480;48.124;11.578;2023-04-03T06:32:05;2.80;;;2.53;;
982;SDS011;480;48.124;11.578;2023-04-03T06:34:32;3.50;;;3.20;;
982;SDS011;480;48.124;11.578;2023-04-03T06:37:00;4.93;;;4.33;;
982;SDS011;480;48.124;11.578;2023-04-03T06:39:28;4.70;;;4.20;;
982;SDS011;480;48.124;11.578;2023-04-03T06:41:59;6.00;;;3.87;;
982;SDS011;480;48.124;11.578;2023-04-03T06:44:26;3.07;;;2.83;;
982;SDS011;480;48.124;11.578;2023-04-03T06:46:53;3.37;;;3.07;;
982;SDS011;480;48.124;11.578;2023-04-03T06:49:20;4.10;;;2.40;;
982;SDS011;480;48.124;11.578;2023-04-03T06:51:47;5.27;;;3.13;;
982;SDS011;480;48.124;11.578;2023-04-03T06:54:15;5.27;;;3.57;;
982;SDS011;480;48.124;11.578;2023-04-03T06:56:42;3.13;;;2.80;;
982;SDS011;480;48.124;11.578;2023-04-03T06:59:11;4.10;;;3.73;;
982;SDS011;480;48.124;11.578;2023-04-03T07:01:39;2.50;;;2.13;;
982;SDS011;480;48.124;11.578;2023-04-03T07:04:07;4.23;;;3.93;;
982;SDS011;480;48.124;11.578;2023-04-03T07:06:34;3.20;;;2.90;;
982;SDS011;480;48.124;11.578;2023-04-03T07:09:02;3.97;;;3.67;;
982;SDS011;480;48.124;11.578;2023-04-03T07:11:29;3.80;;;3.50;;
982;SDS011;480;48.124;11.578;2023-04-03T07:13:56;3.77;;;2.90;;
982;SDS011;480;48.124;11.578;2023-04-03T07:16:25;7.97;;;7.07;;
982;SDS011;480;48.124;11.578;2023-04-03T07:18:52;3.67;;;3.37;;
982;SDS011;480;48.124;11.578;2023-04-03T07:21:20;6.83;;;4.30;;
982;SDS011;480;48.124;11.578;2023-04-03T07:23:50;2.83;;;2.63;;
982;SDS011;480;48.124;11.578;2023-04-03T07:26:19;5.93;;;2.90;;
982;SDS011;480;48.124;11.578;2023-04-03T07:28:47;3.50;;;3.20;;
982;SDS011;480;48.124;11.578;2023-04-03T07:31:29;3.60;;;3.30;;
982;SDS011;480;48.124;11.578;2023-04-03T07:33:58;8.47;;;7.70;;
982;SDS011;480;48.124;11.578;2023-04-03T07:36:26;4.17;;;3.87;;
982;SDS011;480;48.124;11.578;2023-04-03T07:38:54;3.60;;;3.30;;
982;SDS011;480;48.124;11.578;2023-04-03T07:41:23;3.60;;;3.23;;
982;SDS011;480;48.124;11.578;2023-04-03T07:43:53;3.27;;;2.97;;
982;SDS011;480;48.124;11.578;2023-04-03T07:46:21;4.97;;;3.63;;
982;SDS011;480;48.124;11.578;2023-04-03T07:48:51;5.03;;;2.73;;
982;SDS011;480;48.124;11.578;2023-04-03T07:51:18;4.30;;;4.00;;
982;SDS011;480;48.124;11.578;2023-04-03T07:53:47;4.70;;;4.30;;
982;SDS011;480;48.124;11.578;2023-04-03T07:56:16;5.70;;;4.20;;
982;SDS011;480;48.124;11.578;2023-04-03T07:58:45;5.80;;;4.60;;
982;SDS011;480;48.124;11.578;2023-04-03T08:01:13;6.57;;;4.33;;
982;SDS011;480;48.124;11.578;2023-04-03T08:03:52;4.67;;;4.17;;
982;SDS011;480;48.124;11.578;2023-04-03T08:06:22;4.83;;;4.43;;
982;SDS011;480;48.124;11.578;2023-04-03T08:08:50;4.90;;;4.50;;
982;SDS011;480;48.124;11.578;2023-04-03T08:11:17;4.00;;;3.80;;
982;SDS011;480;48.124;11.578;2023-04-03T08:13:48;5.53;;;4.40;;
982;SDS011;480;48.124;11.578;2023-04-03T08:16:29;5.83;;;5.23;;
982;SDS011;480;48.124;11.578;2023-04-03T08:19:13;3.77;;;3.47;;
982;SDS011;480;48.124;11.578;2023-04-03T08:21:42;4.97;;;4.57;;
982;SDS011;480;48.124;11.578;2023-04-03T08:24:12;3.87;;;3.53;;
982;SDS011;480;48.124;11.578;2023-04-03T08:26:40;6.27;;;5.17;;
982;SDS011;480;48.124;11.578;2023-04-03T08:29:07;12.47;;;5.80;;
982;SDS011;480;48.124;11.578;2023-04-03T08:31:35;4.70;;;4.30;;
982;SDS011;480;48.124;11.578;2023-04-03T08:34:02;5.67;;;5.27;;
982;SDS011;480;48.124;11.578;2023-04-03T08:36:31;5.23;;;3.77;;
982;SDS011;480;48.124;11.578;2023-04-03T08:38:58;4.10;;;3.80;;
982;SDS011;480;48.124;11.578;2023-04-03T08:41:33;4.53;;;3.77;;
982;SDS011;480;48.124;11.578;2023-04-03T08:44:22;5.33;;;4.90;;
982;SDS011;480;48.124;11.578;2023-04-03T08:49:28;6.03;;;4.73;;
982;SDS011;480;48.124;11.578;2023-04-03T08:52:01;2.13;;;2.03;;
982;SDS011;480;48.124;11.578;2023-04-03T08:54:35;4.90;;;4.53;;
982;SDS011;480;48.124;11.578;2023-04-03T08:57:12;4.50;;;4.20;;
982;SDS011;480;48.124;11.578;2023-04-03T09:00:03;4.70;;;4.00;;
982;SDS011;480;48.124;11.578;2023-04-03T09:02:43;4.60;;;4.20;;
982;SDS011;480;48.124;11.578;2023-04-03T09:05:29;5.70;;;5.10;;
982;SDS011;480;48.124;11.578;2023-04-03T09:08:10;4.90;;;4.37;;
982;SDS011;480;48.124;11.578;2023-04-03T09:10:45;6.00;;;5.40;;
982;SDS011;480;48.124;11.578;2023-04-03T09:13:20;5.73;;;5.20;;
982;SDS011;480;48.124;11.578;2023-04-03T09:21:08;6.13;;;4.97;;
982;SDS011;480;48.124;11.578;2023-04-03T09:23:45;5.27;;;4.77;;
982;SDS011;480;48.124;11.578;2023-04-03T09:26:16;4.47;;;4.00;;
982;SDS011;480;48.124;11.578;2023-04-03T09:28:48;5.07;;;4.50;;
982;SDS011;480;48.124;11.578;2023-04-03T09:31:18;5.07;;;4.57;;
982;SDS011;480;48.124;11.578;2023-04-03T09:33:50;3.40;;;3.20;;
982;SDS011;480;48.124;11.578;2023-04-03T09:39:12;4.53;;;3.90;;
982;SDS011;480;48.124;11.578;2023-04-03T09:41:42;5.20;;;4.67;;
982;SDS011;480;48.124;11.578;2023-04-03T09:44:32;6.20;;;4.60;;
982;SDS011;480;48.124;11.578;2023-04-03T09:47:00;5.70;;;3.90;;
982;SDS011;480;48.124;11.578;2023-04-03T09:49:51;4.50;;;4.20;;
982;SDS011;480;48.124;11.578;2023-04-03T09:55:15;4.37;;;3.93;;
982;SDS011;480;48.124;11.578;2023-04-03T09:57:51;3.73;;;3.43;;
982;SDS011;480;48.124;11.578;2023-04-03T10:00:35;5.97;;;4.30;;
982;SDS011;480;48.124;11.578;2023-04-03T10:03:09;7.30;;;4.20;;
982;SDS011;480;48.124;11.578;2023-04-03T10:05:51;4.90;;;4.50;;
982;SDS011;480;48.124;11.578;2023-04-03T10:08:21;4.70;;;3.80;;
982;SDS011;480;48.124;11.578;2023-04-03T10:13:51;7.60;;;4.30;;
982;SDS011;480;48.124;11.578;2023-04-03T10:16:23;5.03;;;4.53;;
982;SDS011;480;48.124;11.578;2023-04-03T10:19:02;4.50;;;3.87;;
982;SDS011;480;48.124;11.578;2023-04-03T10:21:40;3.10;;;2.90;;
982;SDS011;480;48.124;11.578;2023-04-03T10:24:13;4.53;;;3.70;;
982;SDS011;480;48.124;11.578;2023-04-03T10:27:01;4.77;;;3.40;;
982;SDS011;480;48.124;11.578;2023-04-03T10:32:30;3.07;;;2.77;;
982;SDS011;480;48.124;11.578;2023-04-03T10:38:11;4.60;;;3.97;;
982;SDS011;480;48.124;11.578;2023-04-03T10:41:01;2.93;;;2.80;;
982;SDS011;480;48.124;11.578;2023-04-03T10:43:36;3.67;;;3.37;;
982;SDS011;480;48.124;11.578;2023-04-03T10:46:09;2.83;;;2.60;;
982;SDS011;480;48.124;11.578;2023-04-03T10:48:47;3.80;;;2.93;;
982;SDS011;480;48.124;11.578;2023-04-03T10:51:27;3.93;;;2.93;;
982;SDS011;480;48.124;11.578;2023-04-03T10:54:01;3.37;;;3.17;;
982;SDS011;480;48.124;11.578;2023-04-03T10:56:35;3.90;;;3.43;;
982;SDS011;480;48.124;11.578;2023-04-03T10:59:08;3.83;;;3.53;;
982;SDS011;480;48.124;11.578;2023-04-03T11:01:44;5.00;;;4.50;;
982;SDS011;480;48.124;11.578;2023-04-03T11:04:16;4.07;;;3.20;;
982;SDS011;480;48.124;11.578;2023-04-03T11:06:47;3.80;;;3.43;;
982;SDS011;480;48.124;11.578;2023-04-03T11:09:19;3.60;;;2.97;;
982;SDS011;480;48.124;11.578;2023-04-03T11:11:51;4.33;;;3.43;;
982;SDS011;480;48.124;11.578;2023-04-03T11:14:24;4.30;;;3.90;;
982;SDS011;480;48.124;11.578;2023-04-03T11:16:59;3.80;;;3.33;;
982;SDS011;480;48.124;11.578;2023-04-03T11:19:35;2.40;;;2.03;;
982;SDS011;480;48.124;11.578;2023-04-03T11:22:10;3.50;;;3.27;;
982;SDS011;480;48.124;11.578;2023-04-03T11:24:41;4.63;;;3.27;;
982;SDS011;480;48.124;11.578;2023-04-03T11:27:15;3.50;;;3.20;;
982;SDS011;480;48.124;11.578;2023-04-03T11:29:48;4.77;;;2.57;;
982;SDS011;480;48.124;11.578;2023-04-03T11:32:27;3.10;;;2.90;;
982;SDS011;480;48.124;11.578;2023-04-03T11:35:08;4.67;;;3.10;;
982;SDS011;480;48.124;11.578;2023-04-03T11:37:38;3.73;;;3.17;;
982;SDS011;480;48.124;11.578;2023-04-03T11:40:07;2.90;;;2.70;;
982;SDS011;480;48.124;11.578;2023-04-03T11:42:46;2.90;;;2.70;;
982;SDS011;480;48.124;11.578;2023-04-03T11:45:15;3.10;;;2.90;;
982;SDS011;480;48.124;11.578;2023-04-03T11:47:58;2.40;;;2.20;;
982;SDS011;480;48.124;11.578;2023-04-03T11:50:46;3.00;;;2.10;;
982;SDS011;480;48.124;11.578;2023-04-03T11:53:30;2.77;;;2.63;;
982;SDS011;480;48.124;11.578;2023-04-03T11:56:00;3.17;;;2.03;;
982;SDS011;480;48.124;11.578;2023-04-03T11:58:30;4.10;;;2.23;;
982;SDS011;480;48.124;11.578;2023-04-03T12:01:03;2.50;;;2.40;;
982;SDS011;480;48.124;11.578;2023-04-03T12:06:49;2.10;;;2.00;;
982;SDS011;480;48.124;11.578;2023-04-03T12:09:28;3.03;;;2.80;;
982;SDS011;480;48.124;11.578;2023-04-03T12:11:58;2.30;;;2.10;;
982;SDS011;480;48.124;11.578;2023-04-03T12:14:28;2.73;;;1.67;;
982;SDS011;480;48.124;11.578;2023-04-03T12:16:56;3.70;;;1.80;;
982;SDS011;480;48.124;11.578;2023-04-03T12:19:29;2.27;;;2.07;;
982;SDS011;480;48.124;11.578;2023-04-03T12:24:51;2.10;;;2.00;;
982;SDS011;480;48.124;11.578;2023-04-03T12:30:12;4.83;;;1.83;;
982;SDS011;480;48.124;11.578;2023-04-03T12:32:57;2.10;;;1.90;;
982;SDS011;480;48.124;11.578;2023-04-03T12:35:39;2.90;;;2.40;;
982;SDS011;480;48.124;11.578;2023-04-03T12:41:27;2.43;;;2.23;;
982;SDS011;480;48.124;11.578;2023-04-03T12:44:03;3.40;;;1.97;;
982;SDS011;480;48.124;11.578;2023-04-03T12:46:48;3.20;;;2.83;;
982;SDS011;480;48.124;11.578;2023-04-03T12:49:26;2.77;;;2.50;;
982;SDS011;480;48.124;11.578;2023-04-03T12:54:51;2.77;;;2.47;;
982;SDS011;480;48.124;11.578;2023-04-03T12:57:20;3.50;;;2.70;;
982;SDS011;480;48.124;11.578;2023-04-03T12:59:50;2.40;;;2.20;;
982;SDS011;480;48.124;11.578;2023-04-03T13:02:19;2.03;;;1.87;;
982;SDS011;480;48.124;11.578;2023-04-03T13:04:49;3.07;;;2.87;;
982;SDS011;480;48.124;11.578;2023-04-03T13:07:22;2.13;;;2.03;;
982;SDS011;480;48.124;11.578;2023-04-03T13:10:03;3.13;;;2.57;;
982;SDS011;480;48.124;11.578;2023-04-03T13:12:48;2.40;;;2.20;;
982;SDS011;480;48.124;11.578;2023-04-03T13:15:17;3.30;;;1.90;;
982;SDS011;480;48.124;11.578;2023-04-03T13:17:45;3.33;;;2.63;;
982;SDS011;480;48.124;11.578;2023-04-03T13:20:17;1.43;;;1.33;;
982;SDS011;480;48.124;11.578;2023-04-03T13:22:48;2.23;;;2.00;;
982;SDS011;480;48.124;11.578;2023-04-03T13:25:20;1.97;;;1.60;;
982;SDS011;480;48.124;11.578;2023-04-03T13:27:48;3.00;;;2.00;;
982;SDS011;480;48.124;11.578;2023-04-03T13:30:20;2.40;;;2.00;;
982;SDS011;480;48.124;11.578;2023-04-03T13:32:50;5.20;;;2.10;;
982;SDS011;480;48.124;11.578;2023-04-03T13:35:31;2.00;;;1.90;;
982;SDS011;480;48.124;11.578;2023-04-03T13:38:04;2.47;;;2.27;;
982;SDS011;480;48.124;11.578;2023-04-03T13:40:49;4.10;;;2.03;;
982;SDS011;480;48.124;11.578;2023-04-03T13:43:18;1.67;;;1.57;;
982;SDS011;480;48.124;11.578;2023-04-03T13:45:58;1.93;;;1.80;;
982;SDS011;480;48.124;11.578;2023-04-03T13:48:34;3.00;;;2.50;;
982;SDS011;480;48.124;11.578;2023-04-03T13:51:14;1.70;;;1.60;;
982;SDS011;480;48.124;11.578;2023-04-03T13:54:21;1.70;;;1.30;;
982;SDS011;480;48.124;11.578;2023-04-03T13:56:54;1.67;;;1.40;;
982;SDS011;480;48.124;11.578;2023-04-03T13:59:23;1.50;;;1.40;;
982;SDS011;480;48.124;11.578;2023-04-03T14:01:54;3.63;;;2.20;;
982;SDS011;480;48.124;11.578;2023-04-03T14:04:35;3.10;;;1.73;;
982;SDS011;480;48.124;11.578;2023-04-03T14:07:14;2.23;;;2.00;;
982;SDS011;480;48.124;11.578;2023-04-03T14:09:43;2.00;;;1.80;;
982;SDS011;480;48.124;11.578;2023-04-03T14:12:17;2.40;;;1.90;;
982;SDS011;480;48.124;11.578;2023-04-03T14:14:47;1.57;;;1.47;;
982;SDS011;480;48.124;11.578;2023-04-03T14:17:15;3.33;;;1.63;;
982;SDS011;480;48.124;11.578;2023-04-03T14:19:44;2.47;;;2.33;;
982;SDS011;480;48.124;11.578;2023-04-03T14:22:15;2.00;;;1.80;;
982;SDS011;480;48.124;11.578;2023-04-03T14:24:45;2.33;;;2.03;;
982;SDS011;480;48.124;11.578;2023-04-03T14:27:17;1.60;;;1.50;;
982;SDS011;480;48.124;11.578;2023-04-03T14:29:45;1.60;;;1.50;;
982;SDS011;480;48.124;11.578;2023-04-03T14:32:14;2.47;;;2.17;;
982;SDS011;480;48.124;11.578;2023-04-03T14:34:42;1.73;;;1.63;;
982;SDS011;480;48.124;11.578;2023-04-03T14:37:11;2.10;;;2.03;;
982;SDS011;480;48.124;11.578;2023-04-03T14:39:39;1.60;;;1.50;;
982;SDS011;480;48.124;11.578;2023-04-03T14:42:10;6.30;;;1.93;;
982;SDS011;480;48.124;11.578;2023-04-03T14:44:41;1.50;;;1.40;;
982;SDS011;480;48.124;11.578;2023-04-03T14:47:10;2.80;;;1.70;;
982;SDS011;480;48.124;11.578;2023-04-03T14:49:38;2.37;;;1.83;;
982;SDS011;480;48.124;11.578;2023-04-03T14:52:06;2.00;;;1.80;;
982;SDS011;480;48.124;11.578;2023-04-03T14:54:42;3.70;;;1.53;;
982;SDS011;480;48.124;11.578;2023-04-03T14:57:09;1.50;;;1.40;;
982;SDS011;480;48.124;11.578;2023-04-03T14:59:40;2.70;;;1.73;;
982;SDS011;480;48.124;11.578;2023-04-03T15:02:22;2.73;;;1.80;;
982;SDS011;480;48.124;11.578;2023-04-03T15:04:52;3.50;;;2.57;;
982;SDS011;480;48.124;11.578;2023-04-03T15:07:23;2.10;;;1.60;;
982;SDS011;480;48.124;11.578;2023-04-03T15:09:52;3.43;;;2.00;;
982;SDS011;480;48.124;11.578;2023-04-03T15:12:21;2.00;;;1.80;;
982;SDS011;480;48.124;11.578;2023-04-03T15:14:50;2.13;;;1.83;;
982;SDS011;480;48.124;11.578;2023-04-03T15:17:18;2.23;;;2.10;;
982;SDS011;480;48.124;11.578;2023-04-03T15:19:48;1.57;;;1.47;;
982;SDS011;480;48.124;11.578;2023-04-03T15:22:16;2.23;;;1.47;;
982;SDS011;480;48.124;11.578;2023-04-03T15:24:45;2.00;;;1.90;;
982;SDS011;480;48.124;11.578;2023-04-03T15:27:12;1.50;;;1.40;;
982;SDS011;480;48.124;11.578;2023-04-03T15:29:41;2.70;;;2.37;;
982;SDS011;480;48.124;11.578;2023-04-03T15:32:10;2.50;;;2.30;;
982;SDS011;480;48.124;11.578;2023-04-03T15:34:39;1.60;;;1.50;;
982;SDS011;480;48.124;11.578;2023-04-03T15:37:09;3.07;;;2.03;;
982;SDS011;480;48.124;11.578;2023-04-03T15:39:36;1.63;;;1.40;;
982;SDS011;480;48.124;11.578;2023-04-03T15:42:04;3.57;;;1.60;;
982;SDS011;480;48.124;11.578;2023-04-03T15:44:32;1.93;;;1.70;;
982;SDS011;480;48.124;11.578;2023-04-03T15:47:00;2.10;;;1.90;;
982;SDS011;480;48.124;11.578;2023-04-03T15:49:30;2.83;;;1.73;;
982;SDS011;480;48.124;11.578;2023-04-03T15:51:58;2.30;;;1.57;;
982;SDS011;480;48.124;11.578;2023-04-03T15:54:26;1.30;;;1.20;;
982;SDS011;480;48.124;11.578;2023-04-03T15:56:54;1.33;;;1.23;;
982;SDS011;480;48.124;11.578;2023-04-03T15:59:22;1.40;;;1.30;;
982;SDS011;480;48.124;11.578;2023-04-03T16:01:49;1.03;;;0.90;;
982;SDS011;480;48.124;11.578;2023-04-03T16:04:17;3.20;;;1.17;;
982;SDS011;480;48.124;11.578;2023-04-03T16:06:47;1.40;;;1.30;;
982;SDS011;480;48.124;11.578;2023-04-03T16:09:14;2.70;;;1.30;;
982;SDS011;480;48.124;11.578;2023-04-03T16:11:41;3.43;;;1.87;;
982;SDS011;480;48.124;11.578;2023-04-03T16:14:09;4.40;;;1.60;;
982;SDS011;480;48.124;11.578;2023-04-03T16:16:37;1.40;;;1.30;;
982;SDS011;480;48.124;11.578;2023-04-03T16:19:04;1.57;;;1.30;;
982;SDS011;480;48.124;11.578;2023-04-03T16:21:32;1.80;;;1.67;;
982;SDS011;480;48.124;11.578;2023-04-03T16:24:04;1.90;;;1.57;;
982;SDS011;480;48.124;11.578;2023-04-03T16:26:32;2.30;;;1.67;;
982;SDS011;480;48.124;11.578;2023-04-03T16:28:59;2.80;;;1.70;;
982;SDS011;480;48.124;11.578;2023-04-03T16:31:26;2.40;;;1.63;;